createdAt,value
2022-12-23T00:00:19.149Z,96191.25
2022-12-23T00:02:47.434Z,96190.63
2022-12-23T00:05:16.608Z,96188.00
2022-12-23T00:07:44.878Z,96185.56
2022-12-23T00:10:13.882Z,96176.69
2022-12-23T00:12:59.118Z,96179.47
2022-12-23T00:15:26.633Z,96167.69
2022-12-23T00:17:54.146Z,96167.19
2022-12-23T00:20:23.086Z,96161.13
2022-12-23T00:23:05.868Z,96156.50
2022-12-23T00:25:44.639Z,96151.25
2022-12-23T00:28:14.676Z,96145.66
2022-12-23T00:30:46.662Z,96137.16
2022-12-23T00:33:14.541Z,96134.88
2022-12-23T00:35:43.746Z,96132.44
2022-12-23T00:38:11.325Z,96135.53
2022-12-23T00:40:56.802Z,96121.75
2022-12-23T00:43:24.303Z,96134.38
2022-12-23T00:45:51.883Z,96125.97
2022-12-23T00:48:37.150Z,96127.59
2022-12-23T00:51:07.360Z,96122.53
2022-12-23T00:53:35.009Z,96128.44
2022-12-23T00:56:02.509Z,96130.06
2022-12-23T00:58:31.847Z,96127.28
2022-12-23T01:01:17.101Z,96129.91
2022-12-23T01:04:02.418Z,96121.03
2022-12-23T01:06:31.292Z,96125.94
2022-12-23T01:08:58.862Z,96118.88
2022-12-23T01:11:26.432Z,96115.44
2022-12-23T01:13:53.958Z,96115.44
2022-12-23T01:16:21.540Z,96116.88
2022-12-23T01:18:49.399Z,96121.97
2022-12-23T01:21:16.994Z,96112.91
2022-12-23T01:23:45.874Z,96124.59
2022-12-23T01:26:13.412Z,96114.09
2022-12-23T01:28:41.677Z,96117.06
2022-12-23T01:31:10.940Z,96114.44
2022-12-23T01:33:38.505Z,96113.47
2022-12-23T01:36:08.373Z,96108.22
2022-12-23T01:38:36.229Z,96101.13
2022-12-23T01:41:05.348Z,96101.13
2022-12-23T01:43:46.120Z,96107.22
2022-12-23T01:46:14.138Z,96109.50
2022-12-23T01:48:43.097Z,96109.31
2022-12-23T01:51:14.271Z,96111.28
2022-12-23T01:53:44.742Z,96104.25
2022-12-23T01:56:16.418Z,96109.31
2022-12-23T01:58:46.749Z,96100.44
2022-12-23T02:01:32.275Z,96108.31
2022-12-23T02:04:04.380Z,96104.88
2022-12-23T02:06:52.320Z,96108.50
2022-12-23T02:09:22.846Z,96115.03
2022-12-23T02:12:11.313Z,96112.06
2022-12-23T02:15:09.074Z,96112.06
2022-12-23T02:17:42.673Z,96110.25
2022-12-23T02:20:47.227Z,96106.66
2022-12-23T02:23:47.782Z,96111.69
2022-12-23T02:26:37.018Z,96111.06
2022-12-23T02:29:20.024Z,96107.09
2022-12-23T02:31:56.176Z,96109.91
2022-12-23T02:34:28.826Z,96114.53
2022-12-23T02:37:04.907Z,96116.94
2022-12-23T02:39:38.860Z,96112.88
2022-12-23T02:42:09.710Z,96117.16
2022-12-23T02:44:41.585Z,96110.06
2022-12-23T02:47:12.488Z,96109.06
2022-12-23T02:49:42.081Z,96110.25
2022-12-23T02:52:15.708Z,96102.19
2022-12-23T02:54:46.474Z,96096.66
2022-12-23T02:57:15.551Z,96102.19
2022-12-23T02:59:46.775Z,96106.81
2022-12-23T03:02:15.828Z,96099.75
2022-12-23T03:04:43.452Z,96096.94
2022-12-23T03:07:18.726Z,96092.22
2022-12-23T03:09:54.588Z,96087.44
2022-12-23T03:12:28.707Z,96095.31
2022-12-23T03:15:10.937Z,96090.91
2022-12-23T03:17:50.145Z,96091.69
2022-12-23T03:20:25.093Z,96092.69
2022-12-23T03:22:58.719Z,96083.66
2022-12-23T03:25:30.778Z,96080.03
2022-12-23T03:28:02.107Z,96081.47
2022-12-23T03:30:30.107Z,96077.88
2022-12-23T03:33:01.801Z,96085.72
2022-12-23T03:35:32.500Z,96074.59
2022-12-23T03:38:01.888Z,96084.28
2022-12-23T03:40:32.205Z,96085.28
2022-12-23T03:43:03.323Z,96086.72
2022-12-23T03:45:41.637Z,96084.28
2022-12-23T03:48:19.663Z,96080.50
2022-12-23T03:50:49.316Z,96089.00
2022-12-23T03:53:21.688Z,96084.59
2022-12-23T03:55:53.321Z,96089.63
2022-12-23T03:58:28.919Z,96086.84
2022-12-23T04:01:01.168Z,96091.28
2022-12-23T04:03:33.008Z,96096.72
2022-12-23T04:06:02.205Z,96098.34
2022-12-23T04:08:31.970Z,96096.38
2022-12-23T04:10:59.824Z,96099.00
2022-12-23T04:13:27.665Z,96107.03
2022-12-23T04:15:55.410Z,96101.63
2022-12-23T04:18:22.993Z,96091.97
2022-12-23T04:20:51.838Z,96100.97
2022-12-23T04:23:19.365Z,96099.69
2022-12-23T04:25:46.917Z,96097.50
2022-12-23T04:28:14.423Z,96099.97
2022-12-23T04:30:41.921Z,96098.50
2022-12-23T04:33:11.419Z,96106.03
2022-12-23T04:35:38.991Z,96106.03
2022-12-23T04:38:07.887Z,96107.50
2022-12-23T04:40:35.446Z,96099.00
2022-12-23T04:43:02.995Z,96096.16
2022-12-23T04:45:30.506Z,96102.06
2022-12-23T04:47:58.498Z,96096.47
2022-12-23T04:50:26.015Z,96100.44
2022-12-23T04:52:53.551Z,96106.34
2022-12-23T04:55:22.429Z,96107.16
2022-12-23T04:57:50.036Z,96104.69
2022-12-23T05:00:18.430Z,96102.72
2022-12-23T05:02:46.052Z,96102.06
2022-12-23T05:05:13.902Z,96088.28
2022-12-23T05:07:41.408Z,96102.88
2022-12-23T05:10:10.250Z,96103.72
2022-12-23T05:12:39.093Z,96102.41
2022-12-23T05:15:08.138Z,96114.22
2022-12-23T05:17:36.178Z,96107.31
2022-12-23T05:20:03.805Z,96104.88
2022-12-23T05:22:31.393Z,96110.13
2022-12-23T05:24:58.901Z,96114.56
2022-12-23T05:27:26.437Z,96109.28
2022-12-23T05:29:55.284Z,96126.03
2022-12-23T05:32:23.285Z,96120.97
2022-12-23T05:34:50.830Z,96118.53
2022-12-23T05:37:18.407Z,96123.13
2022-12-23T05:39:45.909Z,96128.88
2022-12-23T05:42:13.675Z,96131.50
2022-12-23T05:44:41.228Z,96129.66
2022-12-23T05:47:10.058Z,96138.72
2022-12-23T05:49:37.637Z,96133.63
2022-12-23T05:52:05.465Z,96135.47
2022-12-23T05:54:33.011Z,96133.97
2022-12-23T05:57:00.561Z,96140.06
2022-12-23T05:59:31.231Z,96142.34
2022-12-23T06:01:59.381Z,96135.09
2022-12-23T06:04:28.638Z,96131.84
2022-12-23T06:06:56.159Z,96143.16
2022-12-23T06:09:23.863Z,96143.50
2022-12-23T06:11:51.405Z,96157.44
2022-12-23T06:14:21.493Z,96159.25
2022-12-23T06:16:55.658Z,96147.09
2022-12-23T06:19:23.228Z,96153.66
2022-12-23T06:21:52.277Z,96151.84
2022-12-23T06:24:19.819Z,96152.66
2022-12-23T06:26:49.736Z,96156.28
2022-12-23T06:29:21.394Z,96161.00
2022-12-23T06:31:49.000Z,96166.41
2022-12-23T06:34:16.742Z,96169.03
2022-12-23T06:36:44.266Z,96176.75
2022-12-23T06:39:13.252Z,96183.66
2022-12-23T06:41:40.799Z,96197.41
2022-12-23T06:44:09.377Z,96205.94
2022-12-23T06:46:37.349Z,96202.50
2022-12-23T06:49:12.591Z,96205.13
2022-12-23T06:51:40.830Z,96204.16
2022-12-23T06:54:10.007Z,96208.06
2022-12-23T06:56:38.985Z,96204.78
2022-12-23T06:59:06.529Z,96211.84
2022-12-23T07:01:34.186Z,96215.94
2022-12-23T07:04:01.917Z,96209.50
2022-12-23T07:06:29.459Z,96205.88
2022-12-23T07:08:57.008Z,96209.50
2022-12-23T07:11:24.600Z,96205.25
2022-12-23T07:13:53.487Z,96211.97
2022-12-23T07:16:21.087Z,96211.31
2022-12-23T07:18:48.797Z,96234.06
2022-12-23T07:21:24.880Z,96235.53
2022-12-23T07:23:56.341Z,96231.75
2022-12-23T07:26:23.837Z,96243.72
2022-12-23T07:28:52.714Z,96246.00
2022-12-23T07:31:20.270Z,96254.81
2022-12-23T07:33:47.810Z,96247.88
2022-12-23T07:36:15.386Z,96247.88
2022-12-23T07:38:42.933Z,96250.81
2022-12-23T07:41:10.460Z,96260.59
2022-12-23T07:43:37.969Z,96263.25
2022-12-23T07:46:10.869Z,96266.63
2022-12-23T07:48:38.548Z,96264.34
2022-12-23T07:51:06.563Z,96262.53
2022-12-23T07:53:34.203Z,96273.34
2022-12-23T07:56:01.770Z,96273.81
2022-12-23T07:58:29.346Z,96279.88
2022-12-23T08:01:01.245Z,96275.88
2022-12-23T08:03:30.377Z,96268.19
2022-12-23T08:06:02.746Z,96273.91
2022-12-23T08:08:30.671Z,96280.13
2022-12-23T08:11:00.218Z,96282.19
2022-12-23T08:13:28.515Z,96292.84
2022-12-23T08:15:57.164Z,96282.84
2022-12-23T08:18:25.332Z,96287.00
2022-12-23T08:20:58.011Z,96287.53
2022-12-23T08:23:26.603Z,96292.06
2022-12-23T08:26:06.856Z,96288.88
2022-12-23T08:28:34.736Z,96296.13
2022-12-23T08:31:07.112Z,96295.84
2022-12-23T08:33:36.313Z,96295.25
2022-12-23T08:36:06.583Z,96283.75
2022-12-23T08:38:34.288Z,96291.84
2022-12-23T08:41:01.866Z,96295.75
2022-12-23T08:43:35.587Z,96293.63
2022-12-23T08:46:03.918Z,96298.03
2022-12-23T08:48:31.550Z,96298.31
2022-12-23T08:51:05.329Z,96301.81
2022-12-23T08:53:33.383Z,96304.38
2022-12-23T08:56:04.034Z,96312.47
2022-12-23T08:58:31.643Z,96324.72
2022-12-23T09:01:03.436Z,96327.63
2022-12-23T09:03:31.173Z,96341.06
2022-12-23T09:05:58.789Z,96340.63
2022-12-23T09:08:27.641Z,96348.34
2022-12-23T09:10:55.146Z,96353.88
2022-12-23T09:13:31.031Z,96359.25
2022-12-23T09:16:02.637Z,96360.69
2022-12-23T09:18:30.251Z,96355.66
2022-12-23T09:20:59.414Z,96352.69
2022-12-23T09:23:28.705Z,96345.03
2022-12-23T09:25:56.654Z,96347.75
2022-12-23T09:28:25.616Z,96348.34
2022-12-23T09:30:53.508Z,96339.69
2022-12-23T09:33:21.139Z,96340.47
2022-12-23T09:35:48.714Z,96346.66
2022-12-23T09:38:16.861Z,96338.03
2022-12-23T09:40:45.847Z,96341.25
2022-12-23T09:43:23.145Z,96338.66
2022-12-23T09:45:59.324Z,96334.97
2022-12-23T09:48:30.835Z,96334.69
2022-12-23T09:50:58.368Z,96339.31
2022-12-23T09:53:28.414Z,96336.88
2022-12-23T09:55:59.157Z,96347.50
2022-12-23T09:58:30.509Z,96333.25
2022-12-23T10:01:07.352Z,96328.03
2022-12-23T10:03:41.904Z,96325.72
2022-12-23T10:06:12.541Z,96333.94
2022-12-23T10:08:42.235Z,96325.75
2022-12-23T10:11:15.776Z,96335.88
2022-12-23T10:13:46.416Z,96332.06
2022-12-23T10:16:16.894Z,96334.81
2022-12-23T10:18:51.443Z,96332.91
2022-12-23T10:21:21.647Z,96332.44
2022-12-23T10:23:52.087Z,96324.38
2022-12-23T10:26:24.846Z,96327.09
2022-12-23T10:28:57.116Z,96330.63
2022-12-23T10:31:40.420Z,96331.00
2022-12-23T10:34:14.960Z,96324.22
2022-12-23T10:36:48.245Z,96324.47
2022-12-23T10:39:22.248Z,96334.63
2022-12-23T10:41:56.991Z,96328.53
2022-12-23T10:44:39.764Z,96318.63
2022-12-23T10:47:13.284Z,96331.06
2022-12-23T10:49:52.958Z,96313.31
2022-12-23T10:52:21.965Z,96316.91
2022-12-23T10:54:49.681Z,96308.38
2022-12-23T10:57:20.435Z,96323.75
2022-12-23T10:59:48.118Z,96307.19
2022-12-23T11:02:41.129Z,96295.22
2022-12-23T11:05:13.974Z,96288.13
2022-12-23T11:07:45.114Z,96281.13
2022-12-23T11:10:18.817Z,96298.00
2022-12-23T11:12:50.451Z,96288.47
2022-12-23T11:15:30.349Z,96293.41
2022-12-23T11:18:03.044Z,96291.69
2022-12-23T11:20:31.043Z,96298.69
2022-12-23T11:23:01.593Z,96302.78
2022-12-23T11:25:32.888Z,96302.84
2022-12-23T11:28:05.412Z,96289.94
2022-12-23T11:30:55.587Z,96295.72
2022-12-23T11:33:26.627Z,96292.09
2022-12-23T11:36:02.445Z,96282.41
2022-12-23T11:38:30.252Z,96285.69
2022-12-23T11:40:58.078Z,96281.66
2022-12-23T11:43:27.535Z,96274.28
2022-12-23T11:46:31.226Z,96281.72
2022-12-23T11:49:20.770Z,96271.78
2022-12-23T11:51:50.089Z,96265.50
2022-12-23T11:54:22.177Z,96272.75
2022-12-23T11:56:52.245Z,96274.03
2022-12-23T11:59:28.777Z,96264.47
2022-12-23T12:01:59.198Z,96264.66
2022-12-23T12:04:27.880Z,96266.50
2022-12-23T12:06:56.775Z,96266.84
2022-12-23T12:09:25.328Z,96261.84
2022-12-23T12:11:54.946Z,96266.13
2022-12-23T12:14:29.214Z,96268.75
2022-12-23T12:17:01.494Z,96261.22
2022-12-23T12:19:32.296Z,96246.50
2022-12-23T12:22:04.110Z,96254.66
2022-12-23T12:24:36.502Z,96255.94
2022-12-23T12:27:07.082Z,96242.38
2022-12-23T12:29:38.935Z,96248.69
2022-12-23T12:32:13.428Z,96248.91
2022-12-23T12:34:45.333Z,96238.75
2022-12-23T12:37:21.355Z,96246.03
2022-12-23T12:39:52.713Z,96234.84
2022-12-23T12:42:25.934Z,96232.22
2022-12-23T12:45:00.156Z,96218.38
2022-12-23T12:50:23.783Z,96227.22
2022-12-23T12:52:52.716Z,96225.59
2022-12-23T12:55:24.587Z,96211.22
2022-12-23T12:57:54.907Z,96212.22
2022-12-23T13:00:25.260Z,96211.97
2022-12-23T13:03:11.980Z,96217.00
2022-12-23T13:06:05.551Z,96206.81
2022-12-23T13:08:45.849Z,96212.69
2022-12-23T13:11:17.686Z,96204.94
2022-12-23T13:13:51.876Z,96202.31
2022-12-23T13:16:31.227Z,96191.53
2022-12-23T13:19:04.371Z,96197.41
2022-12-23T13:21:38.563Z,96198.44
2022-12-23T13:24:15.623Z,96193.16
2022-12-23T13:26:51.649Z,96187.50
2022-12-23T13:29:33.738Z,96190.50
2022-12-23T13:32:07.281Z,96179.09
2022-12-23T13:34:43.607Z,96185.44
2022-12-23T13:37:16.981Z,96178.97
2022-12-23T13:39:51.815Z,96176.53
2022-12-23T13:42:26.322Z,96171.44
2022-12-23T13:44:54.554Z,96164.91
2022-12-23T13:47:25.914Z,96160.66
2022-12-23T13:49:59.678Z,96162.28
2022-12-23T13:52:36.724Z,96156.22
2022-12-23T13:55:12.442Z,96146.22
2022-12-23T13:57:51.004Z,96147.47
2022-12-23T14:00:27.635Z,96149.94
2022-12-23T14:03:16.906Z,96143.22
2022-12-23T14:05:45.825Z,96135.47
2022-12-23T14:08:23.795Z,96136.31
2022-12-23T14:10:53.108Z,96140.56
2022-12-23T14:13:20.667Z,96133.50
2022-12-23T14:16:14.976Z,96125.75
2022-12-23T14:19:04.516Z,96118.03
2022-12-23T14:21:40.298Z,96120.50
2022-12-23T14:24:26.431Z,96118.03
2022-12-23T14:27:18.367Z,96123.50
2022-12-23T14:30:03.363Z,96112.13
2022-12-23T14:32:42.557Z,96121.50
2022-12-23T14:35:29.034Z,96107.47
2022-12-23T14:38:30.366Z,96099.78
2022-12-23T14:41:20.076Z,96087.59
2022-12-23T14:43:56.045Z,96087.75
2022-12-23T14:46:59.486Z,96094.44
2022-12-23T14:49:48.035Z,96086.94
2022-12-23T14:52:44.758Z,96097.16
2022-12-23T14:55:41.848Z,96091.09
2022-12-23T14:58:20.574Z,96086.59
2022-12-23T15:00:50.097Z,96087.22
2022-12-23T15:03:18.806Z,96077.69
2022-12-23T15:05:46.535Z,96074.03
2022-12-23T15:08:33.614Z,96064.31
2022-12-23T15:11:01.331Z,96068.94
2022-12-23T15:13:30.343Z,96069.97
2022-12-23T15:16:01.801Z,96068.16
2022-12-23T15:18:30.319Z,96059.41
2022-12-23T15:21:02.138Z,96060.44
2022-12-23T15:23:31.250Z,96055.38
2022-12-23T15:26:00.443Z,96055.53
2022-12-23T15:28:36.296Z,96061.63
2022-12-23T15:31:05.029Z,96060.00
2022-12-23T15:34:05.348Z,96062.03
2022-12-23T15:36:30.629Z,96056.75
2022-12-23T15:39:01.295Z,96051.47
2022-12-23T15:41:29.049Z,96048.63
2022-12-23T15:44:01.920Z,96046.84
2022-12-23T15:46:30.901Z,96029.97
2022-12-23T15:48:58.959Z,96046.84
2022-12-23T15:51:58.297Z,96038.94
2022-12-23T15:54:24.065Z,96032.41
2022-12-23T15:56:53.926Z,96032.81
2022-12-23T15:59:24.089Z,96032.44
2022-12-23T16:01:51.818Z,96026.13
2022-12-23T16:04:21.287Z,96026.13
2022-12-23T16:06:50.541Z,96020.88
2022-12-23T16:09:32.909Z,96010.94
2022-12-23T16:12:02.240Z,96009.53
2022-12-23T16:14:38.762Z,96021.31
2022-12-23T16:17:18.253Z,96019.69
2022-12-23T16:19:47.315Z,96010.56
2022-12-23T16:22:23.752Z,96008.53
2022-12-23T16:24:58.252Z,96003.25
2022-12-23T16:27:33.540Z,96016.22
2022-12-23T16:30:03.106Z,96002.03
2022-12-23T16:32:30.937Z,95997.41
2022-12-23T16:35:11.951Z,95988.28
2022-12-23T16:37:39.539Z,95985.72
2022-12-23T16:40:15.663Z,95978.19
2022-12-23T16:42:43.180Z,95975.59
2022-12-23T16:45:13.783Z,95977.84
2022-12-23T16:47:42.863Z,95974.19
2022-12-23T16:50:10.710Z,95975.66
2022-12-23T16:52:38.240Z,95961.63
2022-12-23T16:55:14.071Z,95960.22
2022-12-23T16:57:41.595Z,95968.13
2022-12-23T17:00:11.844Z,95965.28
2022-12-23T17:02:39.431Z,95960.41
2022-12-23T17:05:08.080Z,95958.38
2022-12-23T17:07:38.819Z,95960.66
2022-12-23T17:10:11.480Z,95949.16
2022-12-23T17:12:40.639Z,95959.69
2022-12-23T17:15:09.601Z,95948.47
2022-12-23T17:17:37.408Z,95948.88
2022-12-23T17:20:05.469Z,95945.41
2022-12-23T17:22:34.048Z,95943.59
2022-12-23T17:25:01.601Z,95950.28
2022-12-23T17:27:29.254Z,95948.66
2022-12-23T17:29:58.175Z,95945.03
2022-12-23T17:32:25.997Z,95949.28
2022-12-23T17:34:53.569Z,95936.09
2022-12-23T17:37:22.721Z,95939.16
2022-12-23T17:39:50.355Z,95936.72
2022-12-23T17:42:25.223Z,95929.81
2022-12-23T17:44:53.456Z,95927.78
2022-12-23T17:47:23.288Z,95938.34
2022-12-23T17:49:50.864Z,95929.03
2022-12-23T17:52:20.163Z,95939.41
2022-12-23T17:54:49.936Z,95943.09
2022-12-23T17:57:20.392Z,95942.09
2022-12-23T17:59:48.586Z,95938.03
2022-12-23T18:02:25.306Z,95938.47
2022-12-23T18:04:53.365Z,95941.09
2022-12-23T18:07:21.049Z,95939.69
2022-12-23T18:09:48.885Z,95940.69
2022-12-23T18:12:25.219Z,95937.47
2022-12-23T18:14:52.932Z,95948.81
2022-12-23T18:17:20.469Z,95941.78
2022-12-23T18:19:49.341Z,95943.59
2022-12-23T18:22:19.479Z,95948.69
2022-12-23T18:24:48.792Z,95947.25
2022-12-23T18:27:20.993Z,95949.47
2022-12-23T18:29:48.594Z,95943.22
2022-12-23T18:32:22.484Z,95930.38
2022-12-23T18:34:51.868Z,95932.44
2022-12-23T18:37:19.528Z,95939.94
2022-12-23T18:39:47.541Z,95943.81
2022-12-23T18:42:16.108Z,95950.91
2022-12-23T18:44:44.828Z,95942.19
2022-12-23T18:47:12.560Z,95941.19
2022-12-23T18:49:40.340Z,95937.53
2022-12-23T18:52:12.792Z,95941.38
2022-12-23T18:54:40.589Z,95955.41
2022-12-23T18:57:08.837Z,95951.13
2022-12-23T18:59:38.882Z,95951.31
2022-12-23T19:02:06.576Z,95961.28
2022-12-23T19:04:34.232Z,95956.63
2022-12-23T19:07:02.528Z,95961.50
2022-12-23T19:09:31.430Z,95959.66
2022-12-23T19:11:58.917Z,95960.25
2022-12-23T19:14:26.444Z,95968.78
2022-12-23T19:16:54.035Z,95966.97
2022-12-23T19:19:21.975Z,95966.16
2022-12-23T19:21:49.520Z,95975.28
2022-12-23T19:24:17.059Z,95973.66
2022-12-23T19:26:45.889Z,95978.97
2022-12-23T19:29:13.490Z,95984.66
2022-12-23T19:31:41.036Z,95981.81
2022-12-23T19:34:14.617Z,95976.91
2022-12-23T19:36:42.859Z,95972.66
2022-12-23T19:39:15.861Z,95971.66
2022-12-23T19:41:43.503Z,95969.19
2022-12-23T19:44:12.400Z,95975.69
2022-12-23T19:46:40.233Z,95977.72
2022-12-23T19:49:07.829Z,96006.19
2022-12-23T19:51:35.383Z,95996.44
2022-12-23T19:54:03.045Z,96003.56
2022-12-23T19:56:32.384Z,95996.44
2022-12-23T19:58:59.926Z,95995.41
2022-12-23T20:01:29.341Z,96010.25
2022-12-23T20:03:57.295Z,96030.97
2022-12-23T20:06:26.730Z,96014.09
2022-12-23T20:08:59.968Z,96013.31
2022-12-23T20:11:30.548Z,96019.41
2022-12-23T20:13:58.518Z,96024.06
2022-12-23T20:16:26.481Z,96017.56
2022-12-23T20:18:56.106Z,96019.81
2022-12-23T20:21:23.844Z,96017.38
2022-12-23T20:23:51.449Z,96019.22
2022-12-23T20:26:19.841Z,96025.72
2022-12-23T20:28:47.568Z,96019.63
2022-12-23T20:31:17.034Z,96032.63
2022-12-23T20:33:44.667Z,96037.88
2022-12-23T20:36:16.024Z,96035.47
2022-12-23T20:38:45.626Z,96040.13
2022-12-23T20:41:14.697Z,96041.34
2022-12-23T20:43:46.098Z,96048.66
2022-12-23T20:46:21.727Z,96050.50
2022-12-23T20:48:49.630Z,96051.53
2022-12-23T20:51:20.500Z,96048.06
2022-12-23T20:53:48.128Z,96049.69
2022-12-23T20:56:16.971Z,96050.91
2022-12-23T20:58:57.611Z,96058.44
2022-12-23T21:01:28.165Z,96059.06
2022-12-23T21:03:56.529Z,96062.31
2022-12-23T21:06:25.844Z,96063.94
2022-12-23T21:08:55.747Z,96057.00
2022-12-23T21:11:24.314Z,96053.56
2022-12-23T21:13:52.060Z,96060.28
2022-12-23T21:16:19.827Z,96060.28
2022-12-23T21:18:52.498Z,96061.91
2022-12-23T21:21:20.780Z,96057.41
2022-12-23T21:23:49.677Z,96070.63
2022-12-23T21:26:18.643Z,96081.00
2022-12-23T21:28:48.071Z,96079.78
2022-12-23T21:31:16.525Z,96092.41
2022-12-23T21:33:45.641Z,96085.88
2022-12-23T21:36:19.833Z,96092.41
2022-12-23T21:38:50.354Z,96090.13
2022-12-23T21:41:20.227Z,96085.84
2022-12-23T21:43:48.265Z,96100.28
2022-12-23T21:46:17.321Z,96109.63
2022-12-23T21:48:45.175Z,96122.00
2022-12-23T21:51:14.687Z,96135.47
2022-12-23T21:53:42.852Z,96155.59
2022-12-23T21:56:14.171Z,96160.28
2022-12-23T21:58:42.246Z,96145.00
2022-12-23T22:01:10.935Z,96134.84
2022-12-23T22:03:38.964Z,96141.94
2022-12-23T22:06:10.530Z,96140.09
2022-12-23T22:08:38.861Z,96161.06
2022-12-23T22:11:08.327Z,96146.84
2022-12-23T22:13:37.782Z,96135.25
2022-12-23T22:16:09.356Z,96138.69
2022-12-23T22:18:37.536Z,96149.63
2022-12-23T22:21:05.788Z,96141.44
2022-12-23T22:23:33.382Z,96144.75
2022-12-23T22:26:00.912Z,96142.72
2022-12-23T22:28:28.519Z,96139.47
2022-12-23T22:31:03.382Z,96142.66
2022-12-23T22:33:32.125Z,96143.44
2022-12-23T22:35:59.754Z,96160.66
2022-12-23T22:38:27.624Z,96177.94
2022-12-23T22:40:55.305Z,96171.88
2022-12-23T22:43:22.855Z,96183.66
2022-12-23T22:45:56.742Z,96187.38
2022-12-23T22:48:26.016Z,96192.44
2022-12-23T22:51:02.455Z,96208.34
2022-12-23T22:53:30.311Z,96219.19
2022-12-23T22:55:58.806Z,96206.59
2022-12-23T22:58:26.557Z,96204.13
2022-12-23T23:00:54.395Z,96210.63
2022-12-23T23:03:21.936Z,96224.44
2022-12-23T23:05:58.957Z,96213.31
2022-12-23T23:08:26.540Z,96215.53
2022-12-23T23:10:54.173Z,96226.00
2022-12-23T23:13:21.675Z,96224.38
2022-12-23T23:15:49.648Z,96225.78
2022-12-23T23:18:17.179Z,96228.25
2022-12-23T23:20:44.768Z,96215.63
2022-12-23T23:23:13.625Z,96224.13
2022-12-23T23:25:41.290Z,96235.25
2022-12-23T23:28:09.180Z,96240.13
2022-12-23T23:30:37.452Z,96248.72
2022-12-23T23:33:05.244Z,96248.88
2022-12-23T23:35:32.795Z,96257.06
2022-12-23T23:38:00.400Z,96260.69
2022-12-23T23:40:29.410Z,96268.22
2022-12-23T23:42:56.946Z,96262.31
2022-12-23T23:45:24.515Z,96263.91
2022-12-23T23:47:52.088Z,96265.25
2022-12-23T23:50:19.880Z,96270.25
2022-12-23T23:52:47.421Z,96281.53
2022-12-23T23:55:15.052Z,96283.72
2022-12-23T23:57:43.906Z,96281.03
